Time;durP1;ratioP1;P1;durP2;ratioP2;P2;SDS_P1;SDS_P2;PMS_P1;PMS_P2;Temp;Humidity;BMP_temperature;BMP_pressure;BME280_temperature;BME280_humidity;BME280_pressure;Samples;Min_cycle;Max_cycle;Signal;HPM_P1;HPM_P2
2022/07/17 00:01:55;;;;;;;2.20;1.65;;;23.50;55.80;;;;;;6112273;28;80370;-68
2022/07/17 00:04:56;;;;;;;3.97;2.10;;;23.60;56.00;;;;;;6122514;28;81761;-68
2022/07/17 00:07:56;;;;;;;2.25;1.70;;;23.50;55.60;;;;;;6111623;28;80654;-67
2022/07/17 00:10:57;;;;;;;4.20;2.67;;;23.50;55.60;;;;;;6106349;28;80621;-66
2022/07/17 00:13:57;;;;;;;3.67;2.03;;;23.50;56.20;;;;;;6106946;28;80913;-67
2022/07/17 00:16:58;;;;;;;4.03;2.05;;;23.50;55.80;;;;;;6111542;28;81723;-67
2022/07/17 00:19:58;;;;;;;3.80;2.00;;;23.50;55.50;;;;;;6111664;28;80955;-66
2022/07/17 00:22:59;;;;;;;2.75;2.05;;;23.50;55.60;;;;;;6111281;28;81830;-67
2022/07/17 00:25:59;;;;;;;2.90;1.95;;;23.50;55.70;;;;;;6124049;28;80357;-66
2022/07/17 00:29:00;;;;;;;2.55;1.77;;;23.50;55.60;;;;;;6121281;28;80534;-66
2022/07/17 00:32:00;;;;;;;3.75;1.90;;;23.50;55.80;;;;;;6111035;28;80495;-66
2022/07/17 00:35:01;;;;;;;3.90;2.00;;;23.50;55.60;;;;;;6110877;28;80374;-66
2022/07/17 00:38:01;;;;;;;3.38;2.08;;;23.50;55.60;;;;;;6114726;28;81108;-65
2022/07/17 00:41:02;;;;;;;2.72;2.00;;;23.50;55.60;;;;;;6121284;28;80816;-66
2022/07/17 00:44:02;;;;;;;2.90;1.73;;;23.50;55.60;;;;;;6124331;28;80312;-66
2022/07/17 00:47:03;;;;;;;3.08;2.22;;;23.50;55.60;;;;;;6111028;28;80763;-66
2022/07/17 00:50:03;;;;;;;4.60;2.30;;;23.50;55.60;;;;;;6107745;28;80814;-65
2022/07/17 00:53:04;;;;;;;3.20;2.38;;;23.50;55.60;;;;;;6111007;28;80860;-65
2022/07/17 00:56:04;;;;;;;2.75;1.88;;;23.50;55.40;;;;;;6113498;28;80928;-66
2022/07/17 00:59:05;;;;;;;3.42;2.13;;;23.50;55.60;;;;;;6117479;28;80233;-66
2022/07/17 01:02:05;;;;;;;5.05;1.92;;;23.50;55.60;;;;;;6120416;28;81054;-67
2022/07/17 01:05:06;;;;;;;2.72;1.88;;;23.50;55.60;;;;;;6095882;28;80943;-65
2022/07/17 01:08:07;;;;;;;3.45;1.88;;;23.50;55.60;;;;;;6096866;28;81064;-67
2022/07/17 01:11:07;;;;;;;2.53;2.00;;;23.50;55.60;;;;;;6110372;28;80970;-67
2022/07/17 01:14:08;;;;;;;8.75;2.00;;;23.50;55.60;;;;;;6130697;28;80349;-67
2022/07/17 01:17:08;;;;;;;3.88;2.10;;;23.50;55.70;;;;;;6120976;28;81305;-67
2022/07/17 01:20:09;;;;;;;3.35;2.13;;;23.50;55.50;;;;;;6113892;28;80564;-67
2022/07/17 01:23:09;;;;;;;2.28;1.85;;;23.50;55.50;;;;;;6115179;28;81219;-67
2022/07/17 01:26:10;;;;;;;5.38;1.90;;;23.40;55.40;;;;;;6114842;28;80287;-67
2022/07/17 01:29:10;;;;;;;2.75;2.20;;;23.40;55.50;;;;;;6114234;28;82520;-67
2022/07/17 01:32:11;;;;;;;9.20;2.13;;;23.40;55.30;;;;;;6114745;28;80248;-67
2022/07/17 01:35:11;;;;;;;2.13;1.65;;;23.40;55.20;;;;;;6114415;28;80399;-67
2022/07/17 01:38:12;;;;;;;1.92;1.73;;;23.40;55.20;;;;;;6108997;28;81463;-67
2022/07/17 01:41:12;;;;;;;2.38;1.83;;;23.40;55.10;;;;;;6127302;28;80334;-67
2022/07/17 01:44:13;;;;;;;3.20;2.15;;;23.40;55.20;;;;;;6112854;28;80212;-67
2022/07/17 01:47:16;;;;;;;2.50;1.90;;;23.40;55.10;;;;;;6118324;28;80538;-66
2022/07/17 01:50:17;;;;;;;3.10;2.00;;;23.40;55.00;;;;;;6124892;28;80505;-66
2022/07/17 01:53:17;;;;;;;2.35;1.80;;;23.40;55.10;;;;;;6114046;28;80802;-66
2022/07/17 01:56:18;;;;;;;2.40;2.10;;;23.40;55.00;;;;;;6116843;28;80330;-66
2022/07/17 01:59:18;;;;;;;2.88;1.98;;;23.40;55.10;;;;;;6114418;28;80918;-66
2022/07/17 02:02:19;;;;;;;2.67;1.77;;;23.40;55.10;;;;;;6114107;28;80360;-67
2022/07/17 02:05:19;;;;;;;2.60;1.83;;;23.40;55.00;;;;;;6113968;28;80474;-66
2022/07/17 02:08:20;;;;;;;2.03;1.67;;;23.40;54.90;;;;;;6113526;28;80066;-66
2022/07/17 02:11:20;;;;;;;2.30;1.70;;;23.40;54.90;;;;;;6111034;28;80387;-65
2022/07/17 02:14:21;;;;;;;3.53;1.90;;;23.40;55.00;;;;;;6113759;28;80402;-67
2022/07/17 02:17:21;;;;;;;3.08;1.77;;;23.40;55.00;;;;;;6113398;28;80523;-65
2022/07/17 02:20:22;;;;;;;2.92;1.98;;;23.40;54.90;;;;;;6113691;28;81471;-66
2022/07/17 02:23:22;;;;;;;2.95;1.88;;;23.40;54.90;;;;;;6118330;28;80725;-65
2022/07/17 02:26:23;;;;;;;2.67;1.90;;;23.40;54.90;;;;;;6113977;28;80297;-65
2022/07/17 02:29:23;;;;;;;2.60;1.60;;;23.40;54.90;;;;;;6113922;28;80341;-66
2022/07/17 02:32:24;;;;;;;4.45;1.90;;;23.40;55.50;;;;;;6112896;28;80386;-68
2022/07/17 02:35:24;;;;;;;3.17;1.90;;;23.40;54.80;;;;;;6113543;28;80803;-66
2022/07/17 02:38:25;;;;;;;2.58;1.80;;;23.40;54.70;;;;;;6112916;28;80666;-67
2022/07/17 02:41:25;;;;;;;4.00;2.00;;;23.40;54.80;;;;;;6110007;28;80465;-66
2022/07/17 02:44:26;;;;;;;4.25;1.83;;;23.40;54.60;;;;;;6110984;28;80494;-67
2022/07/17 02:47:26;;;;;;;3.30;1.98;;;23.40;54.60;;;;;;6123166;28;80629;-66
2022/07/17 02:50:27;;;;;;;2.60;1.80;;;23.30;54.60;;;;;;6113454;28;80479;-66
2022/07/17 02:53:27;;;;;;;5.80;1.63;;;23.40;55.40;;;;;;6101765;28;81580;-66
2022/07/17 02:56:28;;;;;;;11.95;1.92;;;23.30;54.60;;;;;;6111779;28;85408;-66
2022/07/17 02:59:28;;;;;;;5.93;2.22;;;23.30;54.60;;;;;;6113140;28;81464;-66
2022/07/17 03:02:30;;;;;;;2.05;1.70;;;23.40;54.60;;;;;;6112589;28;80254;-66
2022/07/17 03:05:30;;;;;;;5.85;2.03;;;23.30;54.60;;;;;;6112478;28;80369;-65
2022/07/17 03:08:31;;;;;;;3.58;1.92;;;23.30;54.60;;;;;;6105635;28;82158;-65
2022/07/17 03:11:31;;;;;;;5.20;1.88;;;23.30;54.50;;;;;;6099838;28;80625;-65
2022/07/17 03:14:32;;;;;;;3.03;1.50;;;23.30;54.60;;;;;;6111791;28;80345;-65
2022/07/17 03:17:32;;;;;;;2.95;1.83;;;23.30;54.50;;;;;;6112536;28;80486;-66
2022/07/17 03:20:32;;;;;;;2.45;1.80;;;23.30;54.50;;;;;;6112511;28;82249;-66
2022/07/17 03:23:33;;;;;;;1.98;1.73;;;23.30;54.50;;;;;;6112363;28;81425;-66
2022/07/17 03:26:33;;;;;;;4.28;2.08;;;23.30;54.60;;;;;;6112848;28;80715;-66
2022/07/17 03:29:34;;;;;;;2.97;2.17;;;23.20;54.40;;;;;;6112591;28;80425;-66
2022/07/17 03:32:34;;;;;;;4.65;2.20;;;23.20;54.60;;;;;;6112235;28;80551;-65
2022/07/17 03:35:35;;;;;;;5.32;2.05;;;23.30;54.70;;;;;;6104490;28;80553;-64
2022/07/17 03:38:35;;;;;;;3.42;1.80;;;23.30;54.60;;;;;;6118343;28;81238;-63
2022/07/17 03:41:36;;;;;;;3.47;2.10;;;23.30;54.90;;;;;;6112694;28;80347;-64
2022/07/17 03:44:36;;;;;;;3.38;1.80;;;23.40;54.80;;;;;;6111699;28;80369;-64
2022/07/17 03:47:37;;;;;;;4.90;3.25;;;23.30;54.80;;;;;;6110960;28;80632;-64
2022/07/17 03:50:39;;;;;;;2.85;1.80;;;23.40;54.80;;;;;;6130309;28;80573;-63
2022/07/17 03:53:39;;;;;;;2.78;1.80;;;23.40;54.90;;;;;;6119876;28;81347;-64
2022/07/17 03:56:40;;;;;;;4.32;2.10;;;23.40;55.00;;;;;;6110036;28;81805;-64
2022/07/17 03:59:40;;;;;;;3.85;2.03;;;23.40;55.10;;;;;;6111233;28;80424;-65
2022/07/17 04:02:41;;;;;;;5.15;1.92;;;23.40;55.30;;;;;;6109830;28;80120;-64
2022/07/17 04:05:41;;;;;;;2.85;1.73;;;23.40;55.20;;;;;;6113378;28;80939;-64
2022/07/17 04:08:41;;;;;;;4.63;2.25;;;23.40;55.10;;;;;;6111478;28;80474;-64
2022/07/17 04:11:42;;;;;;;4.18;1.92;;;23.40;55.20;;;;;;6107024;28;80639;-64
2022/07/17 04:14:42;;;;;;;4.00;1.98;;;23.40;55.30;;;;;;6115125;28;81493;-64
2022/07/17 04:17:43;;;;;;;2.90;2.10;;;23.40;55.20;;;;;;6111364;28;80592;-64
2022/07/17 04:20:43;;;;;;;3.35;2.25;;;23.40;55.00;;;;;;6116393;28;80410;-64
2022/07/17 04:23:44;;;;;;;5.30;2.17;;;23.40;55.10;;;;;;6111382;28;80174;-63
2022/07/17 04:26:44;;;;;;;3.25;2.45;;;23.40;55.20;;;;;;6111171;28;82050;-63
2022/07/17 04:29:45;;;;;;;8.45;2.05;;;23.40;55.10;;;;;;6111508;28;80559;-64
2022/07/17 04:32:45;;;;;;;3.97;1.95;;;23.40;55.30;;;;;;6123536;28;80588;-64
2022/07/17 04:35:46;;;;;;;3.50;2.00;;;23.40;55.30;;;;;;6111485;28;80512;-64
2022/07/17 04:38:46;;;;;;;3.97;1.80;;;23.40;55.20;;;;;;6109263;28;80561;-64
2022/07/17 04:41:47;;;;;;;3.65;1.77;;;23.40;55.20;;;;;;6111183;28;80491;-64
2022/07/17 04:44:47;;;;;;;3.30;1.80;;;23.50;55.20;;;;;;6116392;28;80363;-64
2022/07/17 04:47:48;;;;;;;4.63;2.42;;;23.40;55.10;;;;;;6118994;28;80343;-64
2022/07/17 04:50:48;;;;;;;5.55;1.80;;;23.40;55.10;;;;;;6123116;28;83115;-64
2022/07/17 04:53:49;;;;;;;4.70;1.65;;;23.50;55.20;;;;;;6094783;28;81410;-64
2022/07/17 04:56:49;;;;;;;2.45;1.98;;;23.50;55.20;;;;;;6115249;28;81235;-64
2022/07/17 04:59:50;;;;;;;3.30;1.90;;;23.50;55.30;;;;;;6115505;28;80350;-64
2022/07/17 05:02:50;;;;;;;2.47;2.28;;;23.50;55.20;;;;;;6115019;28;81625;-65
2022/07/17 05:05:51;;;;;;;2.53;1.92;;;23.50;55.10;;;;;;6111199;28;81625;-65
2022/07/17 05:08:51;;;;;;;3.00;1.77;;;23.50;54.90;;;;;;6112436;28;80431;-64
2022/07/17 05:11:52;;;;;;;3.40;1.92;;;23.50;55.00;;;;;;6108415;28;80526;-65
2022/07/17 05:14:52;;;;;;;6.95;2.10;;;23.50;54.60;;;;;;6114191;28;80893;-64
2022/07/17 05:17:53;;;;;;;2.88;1.90;;;23.50;54.60;;;;;;6114551;28;79934;-65
2022/07/17 05:20:53;;;;;;;2.22;1.67;;;23.50;54.60;;;;;;6129471;28;80984;-65
2022/07/17 05:23:54;;;;;;;2.58;1.85;;;23.50;54.60;;;;;;6115145;28;80838;-71
2022/07/17 05:26:54;;;;;;;6.32;2.00;;;23.50;54.60;;;;;;6114154;28;81435;-71
2022/07/17 05:29:55;;;;;;;3.17;1.90;;;23.50;54.80;;;;;;6125251;28;80828;-71
2022/07/17 05:32:55;;;;;;;3.15;2.13;;;23.50;54.70;;;;;;6118113;28;80623;-66
2022/07/17 05:35:56;;;;;;;7.20;1.95;;;23.50;54.70;;;;;;6122931;28;80416;-66
2022/07/17 05:38:56;;;;;;;2.72;1.60;;;23.50;54.70;;;;;;6114455;28;80565;-67
2022/07/17 05:41:57;;;;;;;2.15;1.58;;;23.50;54.80;;;;;;6105886;28;80739;-66
2022/07/17 05:44:58;;;;;;;5.80;2.08;;;23.50;54.80;;;;;;6123598;28;80567;-77
2022/07/17 05:47:59;;;;;;;2.45;1.80;;;23.60;54.90;;;;;;6107973;28;81765;-73
2022/07/17 05:50:59;;;;;;;4.38;2.28;;;23.60;54.90;;;;;;6108200;28;80730;-63
2022/07/17 05:54:00;;;;;;;2.78;1.80;;;23.50;54.80;;;;;;6109320;28;80568;-63
2022/07/17 05:57:00;;;;;;;4.13;2.42;;;23.60;54.90;;;;;;6112064;28;80608;-62
2022/07/17 06:00:01;;;;;;;5.72;2.42;;;23.60;54.80;;;;;;6088716;28;80277;-62
2022/07/17 06:03:01;;;;;;;4.85;1.98;;;23.60;54.90;;;;;;6113292;28;80456;-63
2022/07/17 06:06:02;;;;;;;20.85;2.35;;;23.60;54.90;;;;;;6107021;28;81771;-63
2022/07/17 06:09:02;;;;;;;9.95;2.40;;;23.60;55.00;;;;;;6112974;28;80508;-63
2022/07/17 06:12:02;;;;;;;4.20;2.20;;;23.60;54.90;;;;;;6109021;28;80807;-63
2022/07/17 06:15:03;;;;;;;4.13;1.90;;;23.60;54.90;;;;;;6113300;28;81388;-62
2022/07/17 06:18:03;;;;;;;6.10;2.75;;;23.60;55.00;;;;;;6114597;28;86081;-63
2022/07/17 06:21:04;;;;;;;3.75;2.42;;;23.60;55.00;;;;;;6118441;28;80779;-63
2022/07/17 06:24:04;;;;;;;3.72;2.13;;;23.60;55.10;;;;;;6109271;28;80927;-63
2022/07/17 06:27:05;;;;;;;13.73;4.97;;;23.70;54.90;;;;;;6111866;28;80416;-63
2022/07/17 06:30:05;;;;;;;6.95;3.10;;;23.70;54.90;;;;;;6112620;28;81228;-63
2022/07/17 06:33:06;;;;;;;7.25;4.05;;;23.70;55.10;;;;;;6112708;28;80548;-63
2022/07/17 06:36:06;;;;;;;6.78;4.28;;;23.70;55.30;;;;;;6119254;28;80403;-62
2022/07/17 06:39:07;;;;;;;10.82;4.53;;;23.70;55.30;;;;;;6105722;28;80430;-64
2022/07/17 06:42:07;;;;;;;11.18;6.05;;;23.70;55.80;;;;;;6111160;28;81665;-62
2022/07/17 06:45:08;;;;;;;11.00;6.07;;;23.70;55.90;;;;;;6090834;28;80882;-62
2022/07/17 06:48:08;;;;;;;20.85;8.30;;;23.70;56.10;;;;;;6087380;28;80492;-63
2022/07/17 06:51:09;;;;;;;12.77;7.10;;;23.70;56.10;;;;;;6106974;28;83001;-62
2022/07/17 06:54:10;;;;;;;13.68;7.35;;;23.70;56.80;;;;;;6112098;28;80740;-62
2022/07/17 06:57:11;;;;;;;14.93;7.20;;;23.80;56.90;;;;;;6112010;28;81424;-62
2022/07/17 07:00:12;;;;;;;13.35;6.55;;;23.80;57.10;;;;;;6112830;28;82511;-62
2022/07/17 07:03:12;;;;;;;10.00;6.22;;;23.80;56.70;;;;;;6109434;28;80764;-64
2022/07/17 07:06:13;;;;;;;11.38;5.53;;;23.90;56.60;;;;;;6108689;28;80424;-62
2022/07/17 07:09:13;;;;;;;9.65;4.35;;;23.90;56.50;;;;;;6107826;28;80839;-61
2022/07/17 07:12:14;;;;;;;13.18;4.35;;;23.80;56.00;;;;;;6107741;28;81531;-64
2022/07/17 07:15:14;;;;;;;8.65;3.05;;;23.70;55.60;;;;;;6112318;28;81553;-62
2022/07/17 07:18:15;;;;;;;7.60;3.22;;;23.50;54.90;;;;;;6107555;28;80424;-62
2022/07/17 07:21:15;;;;;;;7.60;3.50;;;23.50;55.10;;;;;;6112056;28;81661;-62
2022/07/17 07:24:16;;;;;;;6.15;2.72;;;23.40;55.10;;;;;;6120022;28;81671;-63
2022/07/17 07:27:16;;;;;;;8.75;2.88;;;23.30;55.40;;;;;;6102021;28;80324;-62
2022/07/17 07:30:17;;;;;;;5.07;2.22;;;23.30;55.40;;;;;;6111903;28;81948;-62
2022/07/17 07:33:17;;;;;;;7.07;2.72;;;22.80;55.40;;;;;;6108913;28;81211;-62
2022/07/17 07:36:18;;;;;;;6.72;3.88;;;22.90;55.70;;;;;;6103025;28;81389;-62
2022/07/17 07:39:18;;;;;;;6.97;3.38;;;22.90;55.80;;;;;;6104603;28;81019;-62
2022/07/17 07:42:19;;;;;;;8.57;2.78;;;23.00;55.80;;;;;;6118688;28;80898;-62
2022/07/17 07:45:19;;;;;;;4.85;2.53;;;23.00;55.90;;;;;;6110064;28;80689;-61
2022/07/17 07:48:20;;;;;;;9.10;2.70;;;22.90;55.00;;;;;;6108321;28;80546;-62
2022/07/17 07:51:20;;;;;;;6.53;2.38;;;22.80;56.00;;;;;;6102159;28;80811;-62
2022/07/17 07:54:21;;;;;;;3.67;2.00;;;22.80;55.40;;;;;;6106523;28;81067;-62
2022/07/17 07:57:21;;;;;;;8.90;2.30;;;22.60;55.10;;;;;;6107309;28;81217;-62
2022/07/17 08:00:22;;;;;;;4.28;1.85;;;22.80;55.60;;;;;;6101267;28;80956;-62
2022/07/17 08:03:22;;;;;;;6.47;2.45;;;23.00;55.40;;;;;;6105724;28;80974;-60
2022/07/17 08:06:23;;;;;;;5.82;2.33;;;22.90;55.60;;;;;;6107656;28;80150;-62
2022/07/17 08:09:23;;;;;;;15.48;2.38;;;23.10;55.10;;;;;;6103934;28;80266;-61
2022/07/17 08:12:24;;;;;;;8.45;2.00;;;23.20;54.90;;;;;;6105045;28;81752;-62
2022/07/17 08:15:24;;;;;;;4.40;2.10;;;23.40;54.60;;;;;;6110747;28;80099;-68
2022/07/17 08:18:25;;;;;;;6.85;2.35;;;23.30;54.90;;;;;;6109373;28;81450;-63
2022/07/17 08:21:26;;;;;;;7.28;3.30;;;23.30;55.10;;;;;;6111348;28;81350;-67
2022/07/17 08:24:26;;;;;;;5.47;2.67;;;23.10;54.30;;;;;;6111040;28;79961;-70
2022/07/17 08:27:27;;;;;;;4.47;1.73;;;23.20;54.50;;;;;;6098464;28;80784;-67
2022/07/17 08:30:28;;;;;;;3.78;1.50;;;22.90;53.10;;;;;;6113629;28;80925;-69
2022/07/17 08:33:28;;;;;;;10.10;2.25;;;23.00;54.10;;;;;;6103897;28;80741;-64
2022/07/17 08:36:29;;;;;;;5.82;2.38;;;23.20;54.60;;;;;;6098539;28;80579;-65
2022/07/17 08:39:29;;;;;;;7.63;2.70;;;23.40;54.20;;;;;;6108537;28;80952;-62
2022/07/17 08:42:31;;;;;;;10.00;1.95;;;23.40;53.60;;;;;;6100261;28;81419;-60
2022/07/17 08:45:32;;;;;;;9.82;2.08;;;23.30;54.10;;;;;;6108607;28;83592;-60
2022/07/17 08:48:32;;;;;;;7.40;2.28;;;23.30;53.70;;;;;;6107006;28;81628;-61
2022/07/17 08:51:33;;;;;;;13.57;2.00;;;23.30;53.70;;;;;;6103152;28;80325;-61
2022/07/17 08:54:33;;;;;;;7.93;2.40;;;23.40;53.60;;;;;;6103734;28;80862;-61
2022/07/17 08:57:34;;;;;;;4.90;1.77;;;23.50;53.70;;;;;;6110810;28;80491;-61
2022/07/17 09:00:34;;;;;;;5.03;1.73;;;23.40;53.10;;;;;;6108583;28;80554;-61
2022/07/17 09:03:36;;;;;;;4.32;1.65;;;23.20;53.20;;;;;;6109316;28;80394;-64
2022/07/17 09:06:36;;;;;;;4.20;1.52;;;23.40;53.60;;;;;;6093743;28;80271;-61
2022/07/17 09:09:37;;;;;;;7.22;1.77;;;23.50;53.30;;;;;;6110430;28;80614;-60
2022/07/17 09:12:37;;;;;;;2.60;1.75;;;23.50;52.00;;;;;;6108571;28;80150;-61
2022/07/17 09:15:38;;;;;;;4.47;2.22;;;23.50;51.10;;;;;;6112956;28;80706;-60
2022/07/17 09:18:38;;;;;;;3.15;1.80;;;23.50;50.80;;;;;;6110387;28;81116;-62
2022/07/17 09:21:39;;;;;;;5.35;2.00;;;23.60;51.50;;;;;;6110412;28;81215;-61
2022/07/17 09:24:40;;;;;;;3.72;1.70;;;23.60;51.40;;;;;;6110042;28;81315;-68
2022/07/17 09:27:41;;;;;;;7.82;2.17;;;23.70;51.70;;;;;;6110324;28;84905;-68
2022/07/17 09:30:42;;;;;;;6.65;1.75;;;23.70;51.40;;;;;;6110871;28;80939;-62
2022/07/17 09:33:42;;;;;;;8.02;1.95;;;23.60;51.00;;;;;;6109083;28;80877;-62
2022/07/17 09:36:43;;;;;;;8.15;2.20;;;23.60;51.50;;;;;;6100861;28;80517;-62
2022/07/17 09:39:43;;;;;;;7.40;2.03;;;23.60;50.80;;;;;;6100671;28;82986;-62
2022/07/17 09:42:44;;;;;;;7.78;2.15;;;23.60;50.70;;;;;;6124681;28;81037;-62
2022/07/17 09:45:44;;;;;;;3.83;1.40;;;23.60;51.10;;;;;;6114361;28;80257;-61
2022/07/17 09:48:48;;;;;;;4.85;1.77;;;23.60;51.20;;;;;;6114989;28;80826;-62
2022/07/17 09:51:48;;;;;;;3.13;1.50;;;23.60;51.00;;;;;;6114726;28;80459;-61
2022/07/17 09:54:49;;;;;;;4.50;1.70;;;23.60;50.80;;;;;;6087874;28;83402;-61
2022/07/17 09:57:49;;;;;;;3.08;1.58;;;23.70;50.90;;;;;;6114338;28;80340;-60
2022/07/17 10:00:50;;;;;;;5.07;1.65;;;23.70;50.80;;;;;;6114622;28;81784;-61
2022/07/17 10:03:53;;;;;;;9.45;2.03;;;23.70;50.50;;;;;;6104020;28;82109;-60
2022/07/17 10:06:53;;;;;;;5.93;1.75;;;23.70;49.90;;;;;;6107581;28;80994;-60
2022/07/17 10:09:53;;;;;;;3.50;1.50;;;23.70;49.80;;;;;;6111178;28;80976;-60
2022/07/17 10:12:54;;;;;;;5.75;1.80;;;23.70;49.10;;;;;;6111315;28;80803;-60
2022/07/17 10:15:55;;;;;;;4.38;1.40;;;23.70;49.10;;;;;;6112232;28;80332;-60
2022/07/17 10:18:57;;;;;;;2.85;1.50;;;23.70;48.80;;;;;;6110463;28;82452;-60
2022/07/17 10:21:58;;;;;;;4.78;1.75;;;23.80;48.50;;;;;;6109229;28;81552;-61
2022/07/17 10:24:58;;;;;;;4.25;1.98;;;23.70;48.40;;;;;;6112108;28;81323;-63
2022/07/17 10:27:59;;;;;;;3.17;1.60;;;23.50;48.30;;;;;;6108965;28;80589;-68
2022/07/17 10:30:59;;;;;;;7.07;1.75;;;23.60;48.80;;;;;;6108260;28;81993;-62
2022/07/17 10:33:59;;;;;;;8.18;1.83;;;23.70;49.30;;;;;;6112619;28;80952;-69
2022/07/17 10:37:00;;;;;;;3.38;1.52;;;23.80;50.30;;;;;;6115854;28;81920;-67
2022/07/17 10:40:02;;;;;;;6.95;1.58;;;23.80;51.00;;;;;;6107191;28;80424;-63
2022/07/17 10:43:04;;;;;;;2.70;1.58;;;23.90;51.70;;;;;;6093848;28;81015;-66
2022/07/17 10:46:05;;;;;;;6.38;1.98;;;23.80;51.10;;;;;;6103760;28;81589;-61
2022/07/17 10:49:05;;;;;;;3.03;1.60;;;23.70;50.60;;;;;;6099313;28;81340;-62
2022/07/17 10:52:06;;;;;;;4.05;1.58;;;23.80;51.40;;;;;;6105085;28;80392;-61
2022/07/17 10:55:06;;;;;;;6.90;2.10;;;23.80;50.60;;;;;;6112592;28;81431;-61
2022/07/17 10:58:07;;;;;;;3.70;1.60;;;23.90;51.20;;;;;;6105794;28;81464;-62
2022/07/17 11:01:09;;;;;;;4.50;1.40;;;24.00;51.00;;;;;;6103236;28;81482;-62
2022/07/17 11:04:10;;;;;;;3.88;2.00;;;24.00;50.80;;;;;;6113028;28;80653;-61
2022/07/17 11:07:10;;;;;;;3.80;1.77;;;24.10;51.00;;;;;;6105170;28;87838;-62
2022/07/17 11:10:11;;;;;;;7.57;1.92;;;24.10;50.90;;;;;;6112423;28;81163;-60
2022/07/17 11:13:11;;;;;;;4.50;1.60;;;24.20;50.90;;;;;;6104160;28;80567;-60
2022/07/17 11:16:12;;;;;;;3.63;1.85;;;24.20;50.80;;;;;;6080630;28;81129;-63
2022/07/17 11:19:13;;;;;;;3.90;1.95;;;24.20;50.30;;;;;;6097095;28;80775;-61
2022/07/17 11:22:14;;;;;;;2.58;1.35;;;24.20;50.00;;;;;;6095267;28;81092;-61
2022/07/17 11:25:14;;;;;;;1.80;1.55;;;24.30;48.80;;;;;;6094295;28;80622;-62
2022/07/17 11:28:15;;;;;;;3.78;1.40;;;24.20;48.90;;;;;;6107869;28;80644;-61
2022/07/17 11:31:16;;;;;;;2.92;1.42;;;24.30;48.30;;;;;;6108271;28;81410;-64
2022/07/17 11:34:17;;;;;;;3.00;1.50;;;24.30;48.40;;;;;;6106640;28;81768;-68
2022/07/17 11:37:17;;;;;;;2.72;1.40;;;24.30;48.20;;;;;;6112627;28;81097;-65
2022/07/17 11:40:18;;;;;;;5.88;1.45;;;24.40;47.80;;;;;;6101331;28;80676;-67
2022/07/17 11:43:18;;;;;;;4.95;1.55;;;24.40;48.10;;;;;;6102106;28;81185;-68
2022/07/17 11:46:19;;;;;;;3.85;1.80;;;24.40;46.70;;;;;;6094025;28;80699;-67
2022/07/17 11:49:19;;;;;;;2.65;1.45;;;24.40;46.80;;;;;;6102628;28;80238;-61
2022/07/17 11:52:20;;;;;;;7.22;1.40;;;24.40;47.00;;;;;;6097982;28;81667;-61
2022/07/17 11:55:20;;;;;;;3.25;1.33;;;24.40;46.90;;;;;;6101723;28;80355;-61
2022/07/17 11:58:20;;;;;;;18.13;1.67;;;24.40;46.00;;;;;;6111091;28;80262;-60
2022/07/17 12:01:21;;;;;;;1.95;1.38;;;24.40;45.40;;;;;;6100457;28;80741;-62
2022/07/17 12:04:21;;;;;;;2.17;1.02;;;24.40;46.00;;;;;;6092817;28;80355;-61
2022/07/17 12:07:22;;;;;;;8.73;2.33;;;24.40;46.00;;;;;;6105958;28;80766;-61
2022/07/17 12:10:22;;;;;;;3.28;1.80;;;24.50;45.60;;;;;;6108490;28;80658;-61
2022/07/17 12:13:23;;;;;;;5.40;2.78;;;24.50;46.20;;;;;;6102786;28;80760;-60
2022/07/17 12:16:23;;;;;;;2.67;1.95;;;24.50;46.30;;;;;;6107059;28;80650;-61
2022/07/17 12:19:24;;;;;;;3.05;1.77;;;24.40;45.30;;;;;;6105263;28;84972;-61
2022/07/17 12:22:28;;;;;;;8.18;1.85;;;24.40;44.60;;;;;;6102405;28;80364;-61
2022/07/17 12:25:29;;;;;;;2.55;1.52;;;24.40;45.10;;;;;;6101294;28;81504;-61
2022/07/17 12:28:30;;;;;;;4.65;1.83;;;24.40;45.60;;;;;;6107610;28;80378;-61
2022/07/17 12:31:31;;;;;;;4.10;1.90;;;24.40;45.80;;;;;;6105327;28;80771;-62
2022/07/17 12:34:32;;;;;;;2.75;1.38;;;24.40;45.10;;;;;;6108469;28;80884;-61
2022/07/17 12:37:32;;;;;;;2.08;1.40;;;24.40;44.20;;;;;;6109314;28;80551;-68
2022/07/17 12:40:33;;;;;;;2.40;1.63;;;24.40;44.20;;;;;;6106631;28;80319;-68
2022/07/17 12:43:33;;;;;;;5.70;1.45;;;24.30;44.10;;;;;;6102424;28;80423;-66
2022/07/17 12:46:34;;;;;;;5.55;1.90;;;24.30;44.20;;;;;;6101990;28;80776;-62
2022/07/17 12:49:34;;;;;;;3.10;2.00;;;24.40;44.40;;;;;;6109771;28;80624;-62
2022/07/17 12:52:35;;;;;;;4.65;2.13;;;24.40;44.00;;;;;;6109664;28;81190;-61
2022/07/17 12:55:36;;;;;;;3.60;2.00;;;24.40;43.90;;;;;;6100760;28;80489;-61
2022/07/17 12:58:37;;;;;;;4.35;1.33;;;24.40;44.60;;;;;;6096346;28;80916;-61
2022/07/17 13:01:37;;;;;;;4.75;2.28;;;24.30;43.00;;;;;;6106742;28;80338;-63
2022/07/17 13:04:38;;;;;;;8.13;2.83;;;24.30;43.20;;;;;;6106557;28;81119;-63
2022/07/17 13:07:38;;;;;;;4.50;2.45;;;24.30;43.60;;;;;;6104324;28;82559;-61
2022/07/17 13:10:39;;;;;;;5.38;1.90;;;24.30;44.00;;;;;;6109193;28;80520;-61
2022/07/17 13:13:39;;;;;;;5.32;1.70;;;24.40;43.60;;;;;;6096118;28;79993;-62
2022/07/17 13:16:40;;;;;;;3.67;2.28;;;24.40;44.20;;;;;;6103346;28;82422;-61
2022/07/17 13:19:40;;;;;;;4.13;1.52;;;24.40;44.20;;;;;;6112527;28;80243;-62
2022/07/17 13:22:41;;;;;;;3.92;1.25;;;24.40;44.20;;;;;;6097969;28;80863;-62
2022/07/17 13:25:43;;;;;;;4.72;1.65;;;24.30;44.10;;;;;;6083272;28;80769;-62
2022/07/17 13:28:43;;;;;;;4.43;1.80;;;24.40;45.00;;;;;;6085877;28;80791;-60
2022/07/17 13:31:44;;;;;;;9.13;5.50;;;24.30;44.80;;;;;;6086773;28;80435;-61
2022/07/17 13:34:45;;;;;;;9.90;5.75;;;24.40;44.60;;;;;;6099134;28;80924;-62
2022/07/17 13:37:45;;;;;;;10.63;5.18;;;24.30;44.50;;;;;;6123537;28;80340;-62
2022/07/17 13:40:45;;;;;;;9.75;5.25;;;24.30;44.50;;;;;;6119382;28;80222;-62
2022/07/17 13:43:46;;;;;;;8.95;5.38;;;24.40;44.80;;;;;;6113854;28;81693;-62
2022/07/17 13:46:46;;;;;;;8.48;5.35;;;24.40;45.50;;;;;;6104033;28;80504;-62
2022/07/17 13:49:47;;;;;;;10.82;3.85;;;24.40;45.60;;;;;;6100207;28;81434;-61
2022/07/17 13:52:47;;;;;;;5.80;3.17;;;24.40;44.40;;;;;;6108826;28;81839;-62
2022/07/17 13:55:48;;;;;;;3.53;2.45;;;24.40;44.60;;;;;;6108996;28;81120;-62
2022/07/17 13:58:48;;;;;;;3.08;2.30;;;24.30;44.00;;;;;;6113993;28;80588;-62
2022/07/17 14:01:49;;;;;;;7.45;5.40;;;24.30;44.70;;;;;;6111555;28;80967;-63
2022/07/17 14:04:49;;;;;;;5.00;3.17;;;24.40;45.80;;;;;;6112711;28;80554;-62
2022/07/17 14:07:50;;;;;;;4.80;3.45;;;24.40;44.30;;;;;;6106416;28;80905;-61
2022/07/17 14:10:50;;;;;;;10.65;3.08;;;24.40;45.50;;;;;;6111747;28;80265;-60
2022/07/17 14:13:51;;;;;;;4.78;2.75;;;24.50;45.40;;;;;;6094099;28;81094;-62
2022/07/17 14:16:51;;;;;;;4.82;1.67;;;24.50;45.50;;;;;;6095020;28;80364;-61
2022/07/17 14:19:52;;;;;;;3.88;1.40;;;24.50;43.90;;;;;;6105763;28;81806;-62
2022/07/17 14:22:52;;;;;;;1.92;1.17;;;24.40;43.20;;;;;;6102073;28;81362;-62
2022/07/17 14:25:53;;;;;;;3.00;1.45;;;24.40;44.00;;;;;;6090176;28;80542;-62
2022/07/17 14:28:53;;;;;;;3.65;1.60;;;24.40;43.80;;;;;;6075816;28;80959;-60
2022/07/17 14:31:54;;;;;;;2.40;1.40;;;24.40;43.60;;;;;;6077048;28;80433;-62
2022/07/17 14:34:54;;;;;;;4.05;1.50;;;24.40;43.20;;;;;;6084943;28;80837;-62
2022/07/17 14:37:55;;;;;;;3.30;1.40;;;24.40;43.30;;;;;;6105672;28;81263;-62
2022/07/17 14:40:55;;;;;;;4.13;1.40;;;24.30;42.20;;;;;;6105446;28;80239;-62
2022/07/17 14:43:56;;;;;;;2.75;1.50;;;24.20;41.90;;;;;;6105045;28;80574;-61
2022/07/17 14:46:56;;;;;;;2.63;1.38;;;24.20;42.10;;;;;;6109166;28;81390;-62
2022/07/17 14:49:57;;;;;;;3.40;2.15;;;24.20;42.20;;;;;;6098373;28;81543;-61
2022/07/17 14:52:57;;;;;;;5.55;2.15;;;24.20;42.60;;;;;;6111735;28;80639;-65
2022/07/17 14:55:58;;;;;;;4.10;1.60;;;24.20;43.10;;;;;;6111457;28;80492;-62
2022/07/17 14:58:58;;;;;;;2.53;1.83;;;24.30;44.20;;;;;;6119623;28;81136;-62
2022/07/17 15:01:59;;;;;;;3.47;1.25;;;24.30;43.20;;;;;;6112324;28;82297;-61
2022/07/17 15:04:59;;;;;;;6.53;1.50;;;24.30;43.80;;;;;;6108762;28;80425;-62
2022/07/17 15:08:00;;;;;;;5.43;1.90;;;24.40;44.50;;;;;;6110698;28;82527;-61
2022/07/17 15:11:00;;;;;;;10.63;1.23;;;24.30;43.30;;;;;;6111236;28;81997;-63
2022/07/17 15:14:01;;;;;;;2.03;1.33;;;24.30;42.20;;;;;;6111179;28;80739;-63
2022/07/17 15:17:01;;;;;;;5.03;1.35;;;24.30;43.70;;;;;;6105092;28;80517;-64
2022/07/17 15:20:01;;;;;;;4.93;1.77;;;24.30;43.60;;;;;;6101573;28;80407;-63
2022/07/17 15:23:02;;;;;;;1.55;1.27;;;24.30;43.50;;;;;;6105329;28;87366;-64
2022/07/17 15:26:02;;;;;;;3.90;1.70;;;24.30;43.00;;;;;;6099381;28;80989;-63
2022/07/17 15:29:03;;;;;;;4.25;1.58;;;24.30;42.60;;;;;;6102290;28;80907;-63
2022/07/17 15:32:03;;;;;;;4.53;1.60;;;24.30;42.60;;;;;;6106212;28;81466;-63
2022/07/17 15:35:04;;;;;;;5.15;1.58;;;24.20;42.40;;;;;;6111674;28;81352;-70
2022/07/17 15:38:04;;;;;;;1.95;1.42;;;24.20;42.40;;;;;;6109262;28;80492;-70